createdAt,value
2019-04-25T00:01:11.572Z,99543.31
2019-04-25T00:03:42.564Z,99536.23
2019-04-25T00:06:12.577Z,99531.54
2019-04-25T00:08:43.059Z,99525.12
2019-04-25T00:11:13.059Z,99517.23
2019-04-25T00:13:43.226Z,99512.17
2019-04-25T00:16:13.080Z,99515.33
2019-04-25T00:18:42.848Z,99506.58
2019-04-25T00:21:22.665Z,99506.72
2019-04-25T00:23:56.112Z,99515.06
2019-04-25T00:26:43.224Z,99521.91
2019-04-25T00:29:13.211Z,99521.91
2019-04-25T00:31:43.717Z,99523.91
2019-04-25T00:34:12.903Z,99517.83
2019-04-25T00:36:43.532Z,99514.96
2019-04-25T00:39:12.543Z,99516.08
2019-04-25T00:41:44.344Z,99526.11
2019-04-25T00:44:12.392Z,99525.73
2019-04-25T00:46:44.798Z,99531.76
2019-04-25T00:49:12.317Z,99544.30
2019-04-25T00:51:42.573Z,99555.78
2019-04-25T00:54:12.049Z,99558.47
2019-04-25T00:56:43.292Z,99551.42
2019-04-25T00:59:17.401Z,99549.03
2019-04-25T01:02:17.828Z,99553.68
2019-04-25T01:04:47.224Z,99558.84
2019-04-25T01:07:16.415Z,99568.02
2019-04-25T01:09:45.717Z,99561.94
2019-04-25T01:12:14.918Z,99562.09
2019-04-25T01:14:44.261Z,99556.53
2019-04-25T01:17:14.240Z,99549.12
2019-04-25T01:19:44.924Z,99551.45
2019-04-25T01:22:14.447Z,99545.39
2019-04-25T01:24:43.947Z,99538.49
2019-04-25T01:27:13.560Z,99529.27
2019-04-25T01:29:44.405Z,99528.20
2019-04-25T01:32:16.706Z,99533.19
2019-04-25T01:35:05.231Z,99533.84
2019-04-25T01:37:51.109Z,99525.09
2019-04-25T01:40:39.502Z,99526.09
2019-04-25T01:43:39.574Z,99518.45
2019-04-25T01:46:08.768Z,99514.58
2019-04-25T01:48:37.875Z,99520.56
2019-04-25T01:51:06.841Z,99531.27
2019-04-25T01:53:35.936Z,99549.58
2019-04-25T01:56:07.597Z,99558.61
2019-04-25T01:58:35.442Z,99567.63
2019-04-25T02:01:04.666Z,99570.21
2019-04-25T02:03:34.253Z,99560.16
2019-04-25T02:06:05.074Z,99547.05
2019-04-25T02:08:34.449Z,99552.75
2019-04-25T02:11:16.444Z,99562.88
2019-04-25T02:13:45.479Z,99570.56
2019-04-25T02:16:14.466Z,99582.55
2019-04-25T02:18:43.643Z,99583.88
2019-04-25T02:21:13.727Z,99580.14
2019-04-25T02:23:42.159Z,99575.41
2019-04-25T02:26:15.937Z,99596.23
2019-04-25T02:28:43.315Z,99591.02
2019-04-25T02:31:15.366Z,99601.38
2019-04-25T02:33:44.251Z,99605.91
2019-04-25T02:36:14.461Z,99611.87
2019-04-25T02:38:44.258Z,99628.69
2019-04-25T02:41:14.808Z,99632.49
2019-04-25T02:43:45.009Z,99622.27
2019-04-25T02:46:31.861Z,99610.64
2019-04-25T02:49:29.966Z,99617.98
2019-04-25T02:52:13.100Z,99610.09
2019-04-25T02:54:40.411Z,99614.85
2019-04-25T02:57:09.334Z,99625.82
2019-04-25T02:59:38.193Z,99617.08
2019-04-25T03:02:09.093Z,99625.23
2019-04-25T03:04:37.770Z,99619.88
2019-04-25T03:07:10.532Z,99611.17
2019-04-25T03:09:37.486Z,99608.63
2019-04-25T03:12:08.106Z,99608.91
2019-04-25T03:14:37.129Z,99613.88
2019-04-25T03:17:08.656Z,99613.53
2019-04-25T03:19:59.894Z,99613.31
2019-04-25T03:22:30.516Z,99619.14
2019-04-25T03:25:00.261Z,99625.62
2019-04-25T03:27:30.247Z,99614.30
2019-04-25T03:29:59.748Z,99617.45
2019-04-25T03:32:28.714Z,99604.08
2019-04-25T03:34:57.899Z,99608.02
2019-04-25T03:37:26.793Z,99605.27
2019-04-25T03:39:55.854Z,99602.59
2019-04-25T03:42:24.757Z,99596.52
2019-04-25T03:44:53.922Z,99589.25
2019-04-25T03:47:23.554Z,99594.59
2019-04-25T03:49:55.101Z,99599.38
2019-04-25T03:52:23.894Z,99604.00
2019-04-25T03:54:53.433Z,99625.30
2019-04-25T03:57:23.245Z,99629.58
2019-04-25T03:59:53.639Z,99627.39
2019-04-25T04:02:23.364Z,99633.72
2019-04-25T04:04:53.766Z,99647.70
2019-04-25T04:07:23.774Z,99649.30
2019-04-25T04:09:53.308Z,99650.16
2019-04-25T04:12:24.319Z,99649.91
2019-04-25T04:14:53.815Z,99647.74
2019-04-25T04:17:31.031Z,99650.67
2019-04-25T04:20:17.517Z,99654.56
2019-04-25T04:22:59.414Z,99658.48
2019-04-25T04:25:28.441Z,99667.63
2019-04-25T04:27:57.496Z,99674.30
2019-04-25T04:30:26.593Z,99679.27
2019-04-25T04:32:55.489Z,99686.93
2019-04-25T04:35:24.605Z,99687.28
2019-04-25T04:37:54.195Z,99686.58
2019-04-25T04:40:24.274Z,99688.87
2019-04-25T04:42:53.360Z,99693.65
2019-04-25T04:45:23.245Z,99692.92
2019-04-25T04:47:53.338Z,99699.38
2019-04-25T04:50:23.280Z,99700.33
2019-04-25T04:52:54.023Z,99701.19
2019-04-25T04:55:23.307Z,99709.20
2019-04-25T04:57:52.244Z,99718.08
2019-04-25T05:00:23.183Z,99707.14
2019-04-25T05:03:02.295Z,99699.62
2019-04-25T05:05:50.266Z,99706.78
2019-04-25T05:08:25.013Z,99705.45
2019-04-25T05:10:55.046Z,99718.20
2019-04-25T05:13:24.674Z,99722.21
2019-04-25T05:15:53.685Z,99718.81
2019-04-25T05:18:36.593Z,99719.16
2019-04-25T05:20:54.296Z,99718.33
2019-04-25T05:23:24.793Z,99715.02
2019-04-25T05:25:55.658Z,99721.70
2019-04-25T05:28:24.696Z,99716.73
2019-04-25T05:31:03.801Z,99716.39
2019-04-25T05:33:33.802Z,99718.71
2019-04-25T05:36:03.750Z,99722.11
2019-04-25T05:38:33.416Z,99721.51
2019-04-25T05:41:11.458Z,99723.34
2019-04-25T05:43:41.316Z,99713.35
2019-04-25T05:46:11.348Z,99723.66
2019-04-25T05:48:40.372Z,99725.38
2019-04-25T05:51:09.446Z,99723.09
2019-04-25T05:53:38.515Z,99723.58
2019-04-25T05:56:07.443Z,99721.86
2019-04-25T05:58:36.398Z,99726.49
2019-04-25T06:01:05.596Z,99730.55
2019-04-25T06:03:34.491Z,99724.12
2019-04-25T06:06:03.548Z,99736.31
2019-04-25T06:08:34.229Z,99732.55
2019-04-25T06:11:15.980Z,99731.72
2019-04-25T06:13:50.326Z,99725.80
2019-04-25T06:16:28.283Z,99739.03
2019-04-25T06:19:14.021Z,99741.26
2019-04-25T06:21:40.622Z,99748.50
2019-04-25T06:24:21.390Z,99749.93
2019-04-25T06:27:18.136Z,99750.13
2019-04-25T06:29:58.148Z,99754.45
2019-04-25T06:32:21.459Z,99748.48
2019-04-25T06:34:50.683Z,99760.12
2019-04-25T06:37:21.209Z,99771.19
2019-04-25T06:39:50.478Z,99759.76
2019-04-25T06:42:21.032Z,99755.55
2019-04-25T06:44:56.689Z,99756.53
2019-04-25T06:47:44.269Z,99756.66
2019-04-25T06:50:13.691Z,99757.03
2019-04-25T06:52:44.210Z,99749.23
2019-04-25T06:55:34.287Z,99751.91
2019-04-25T06:58:10.121Z,99753.36
2019-04-25T07:00:40.531Z,99749.95
2019-04-25T07:03:04.688Z,99755.36
2019-04-25T07:05:40.006Z,99758.77
2019-04-25T07:08:04.205Z,99757.98
2019-04-25T07:10:33.890Z,99758.13
2019-04-25T07:13:04.310Z,99760.65
2019-04-25T07:15:34.112Z,99760.45
2019-04-25T07:18:04.287Z,99757.86
2019-04-25T07:20:34.574Z,99754.32
2019-04-25T07:23:03.881Z,99758.68
2019-04-25T07:25:36.628Z,99760.74
2019-04-25T07:28:29.765Z,99759.85
2019-04-25T07:31:13.305Z,99761.74
2019-04-25T07:33:53.500Z,99761.84
2019-04-25T07:36:23.313Z,99750.45
2019-04-25T07:39:05.176Z,99759.03
2019-04-25T07:41:24.197Z,99761.88
2019-04-25T07:43:54.018Z,99760.91
2019-04-25T07:46:23.482Z,99756.95
2019-04-25T07:48:53.545Z,99757.12
2019-04-25T07:51:23.717Z,99757.04
2019-04-25T07:53:53.435Z,99761.14
2019-04-25T07:56:24.074Z,99748.00
2019-04-25T07:58:54.759Z,99759.95
2019-04-25T08:01:24.128Z,99758.20
2019-04-25T08:03:53.741Z,99771.09
2019-04-25T08:06:24.251Z,99768.41
2019-04-25T08:08:54.600Z,99779.09
2019-04-25T08:11:23.814Z,99785.78
2019-04-25T08:14:15.764Z,99769.06
2019-04-25T08:16:46.427Z,99770.22
2019-04-25T08:19:15.297Z,99772.11
2019-04-25T08:21:45.164Z,99773.48
2019-04-25T08:24:14.264Z,99773.28
2019-04-25T08:26:43.679Z,99768.27
2019-04-25T08:29:13.306Z,99771.87
2019-04-25T08:31:43.876Z,99783.11
2019-04-25T08:34:14.507Z,99777.23
2019-04-25T08:36:45.758Z,99768.38
2019-04-25T08:39:14.765Z,99778.16
2019-04-25T08:41:45.594Z,99768.41
2019-04-25T08:44:14.704Z,99769.92
2019-04-25T08:46:46.955Z,99765.00
2019-04-25T08:49:38.744Z,99769.15
2019-04-25T08:52:08.049Z,99758.06
2019-04-25T08:55:00.766Z,99780.27
2019-04-25T08:58:06.655Z,99782.76
2019-04-25T09:00:59.081Z,99785.20
2019-04-25T09:03:24.260Z,99787.50
2019-04-25T09:05:53.606Z,99790.66
2019-04-25T09:08:23.982Z,99785.97
2019-04-25T09:10:53.460Z,99785.33
2019-04-25T09:13:23.512Z,99784.36
2019-04-25T09:15:54.055Z,99784.64
2019-04-25T09:18:24.065Z,99793.78
2019-04-25T09:20:53.963Z,99792.83
2019-04-25T09:23:23.680Z,99799.19
2019-04-25T09:25:54.325Z,99792.90
2019-04-25T09:28:23.927Z,99799.05
2019-04-25T09:30:54.064Z,99803.00
2019-04-25T09:33:23.281Z,99805.88
2019-04-25T09:35:52.107Z,99815.50
2019-04-25T09:38:21.126Z,99813.61
2019-04-25T09:40:50.106Z,99814.12
2019-04-25T09:43:19.342Z,99813.20
2019-04-25T09:45:58.082Z,99810.19
2019-04-25T09:48:31.718Z,99806.00
2019-04-25T09:51:07.474Z,99800.16
2019-04-25T09:53:43.445Z,99801.44
2019-04-25T09:56:17.663Z,99792.78
2019-04-25T09:58:53.747Z,99798.00
2019-04-25T10:01:23.965Z,99807.88
2019-04-25T10:03:54.380Z,99804.33
2019-04-25T10:06:23.423Z,99805.73
2019-04-25T10:08:54.130Z,99805.56
2019-04-25T10:11:23.792Z,99806.56
2019-04-25T10:14:11.511Z,99815.30
2019-04-25T10:16:40.417Z,99814.33
2019-04-25T10:19:09.541Z,99807.41
2019-04-25T10:21:39.544Z,99797.73
2019-04-25T10:24:08.572Z,99805.55
2019-04-25T10:26:38.634Z,99799.30
2019-04-25T10:29:08.411Z,99798.14
2019-04-25T10:31:37.455Z,99792.92
2019-04-25T10:34:06.441Z,99802.09
2019-04-25T10:36:35.438Z,99786.57
2019-04-25T10:39:10.649Z,99780.10
2019-04-25T10:41:36.550Z,99783.91
2019-04-25T10:44:06.084Z,99780.02
2019-04-25T10:46:34.992Z,99782.59
2019-04-25T10:49:04.479Z,99781.26
2019-04-25T10:51:34.265Z,99782.88
2019-04-25T10:54:04.138Z,99778.50
2019-04-25T10:56:33.532Z,99781.77
2019-04-25T10:59:04.234Z,99768.17
2019-04-25T11:01:33.915Z,99775.16
2019-04-25T11:04:08.113Z,99773.33
2019-04-25T11:06:37.002Z,99773.13
2019-04-25T11:09:08.748Z,99773.20
2019-04-25T11:11:37.587Z,99764.79
2019-04-25T11:14:07.598Z,99763.93
2019-04-25T11:16:35.918Z,99749.69
2019-04-25T11:19:05.372Z,99760.19
2019-04-25T11:21:34.223Z,99759.50
2019-04-25T11:24:04.074Z,99749.91
2019-04-25T11:26:34.542Z,99743.98
2019-04-25T11:29:03.677Z,99740.97
2019-04-25T11:31:37.192Z,99749.58
2019-04-25T11:34:06.565Z,99748.45
2019-04-25T11:36:35.695Z,99744.72
2019-04-25T11:39:30.625Z,99738.58
2019-04-25T11:41:59.775Z,99738.36
2019-04-25T11:44:28.772Z,99739.99
2019-04-25T11:46:57.640Z,99741.59
2019-04-25T11:49:26.665Z,99735.53
2019-04-25T11:51:55.788Z,99741.92
2019-04-25T11:54:24.866Z,99737.05
2019-04-25T11:56:54.715Z,99737.05
2019-04-25T11:59:24.427Z,99733.17
2019-04-25T12:01:54.782Z,99737.86
2019-04-25T12:04:25.347Z,99732.79
2019-04-25T12:06:53.471Z,99740.89
2019-04-25T12:09:23.983Z,99723.21
2019-04-25T12:11:54.464Z,99720.39
2019-04-25T12:14:25.190Z,99714.41
2019-04-25T12:16:56.123Z,99710.44
2019-04-25T12:19:34.973Z,99711.58
2019-04-25T12:21:58.093Z,99698.02
2019-04-25T12:24:27.203Z,99705.64
2019-04-25T12:26:56.372Z,99704.69
2019-04-25T12:29:25.478Z,99708.08
2019-04-25T12:31:54.916Z,99705.16
2019-04-25T12:34:24.335Z,99690.59
2019-04-25T12:36:54.487Z,99682.16
2019-04-25T12:39:24.278Z,99668.80
2019-04-25T12:41:54.391Z,99670.38
2019-04-25T12:44:41.635Z,99674.86
2019-04-25T12:47:14.063Z,99683.42
2019-04-25T12:49:43.771Z,99679.56
2019-04-25T12:52:13.145Z,99674.19
2019-04-25T12:54:43.987Z,99681.36
2019-04-25T12:57:14.171Z,99679.27
2019-04-25T12:59:45.177Z,99686.88
2019-04-25T13:02:14.401Z,99676.80
2019-04-25T13:04:44.282Z,99663.89
2019-04-25T13:07:13.770Z,99663.38
2019-04-25T13:09:42.695Z,99659.50
2019-04-25T13:12:14.614Z,99662.55
2019-04-25T13:14:42.799Z,99659.34
2019-04-25T13:17:11.805Z,99661.21
2019-04-25T13:19:43.999Z,99663.38
2019-04-25T13:22:13.313Z,99666.58
2019-04-25T13:24:42.275Z,99668.90
2019-04-25T13:27:18.163Z,99666.73
2019-04-25T13:30:11.827Z,99660.84
2019-04-25T13:33:02.582Z,99660.50
2019-04-25T13:35:36.346Z,99653.80
2019-04-25T13:38:05.346Z,99644.55
2019-04-25T13:40:34.286Z,99636.30
2019-04-25T13:43:04.916Z,99635.14
2019-04-25T13:45:34.356Z,99628.58
2019-04-25T13:48:04.900Z,99623.70
2019-04-25T13:50:34.389Z,99624.89
2019-04-25T13:53:03.597Z,99624.73
2019-04-25T13:55:32.599Z,99619.92
2019-04-25T13:58:01.646Z,99611.26
2019-04-25T14:00:30.902Z,99609.61
2019-04-25T14:03:00.055Z,99609.80
2019-04-25T14:05:29.210Z,99604.67
2019-04-25T14:07:58.078Z,99596.64
2019-04-25T14:10:27.852Z,99589.98
2019-04-25T14:12:57.029Z,99584.64
2019-04-25T14:15:27.456Z,99583.14
2019-04-25T14:18:15.509Z,99572.23
2019-04-25T14:21:24.784Z,99574.95
2019-04-25T14:23:54.143Z,99581.10
2019-04-25T14:26:23.129Z,99567.17
2019-04-25T14:28:52.087Z,99552.57
2019-04-25T14:31:39.131Z,99556.50
2019-04-25T14:33:55.808Z,99552.57
2019-04-25T14:36:27.132Z,99550.72
2019-04-25T14:38:55.489Z,99555.26
2019-04-25T14:41:24.595Z,99551.28
2019-04-25T14:43:53.649Z,99548.91
2019-04-25T14:46:22.850Z,99544.20
2019-04-25T14:48:51.742Z,99545.19
2019-04-25T14:51:20.696Z,99540.79
2019-04-25T14:53:49.895Z,99537.07
2019-04-25T14:56:28.636Z,99533.69
2019-04-25T14:58:57.493Z,99539.06
2019-04-25T15:01:26.472Z,99526.59
2019-04-25T15:03:55.314Z,99527.77
2019-04-25T15:06:24.473Z,99525.08
2019-04-25T15:08:54.265Z,99528.26
2019-04-25T15:11:24.437Z,99527.06
2019-04-25T15:13:52.570Z,99521.03
2019-04-25T15:16:22.362Z,99519.48
2019-04-25T15:18:52.264Z,99517.82
2019-04-25T15:21:21.296Z,99506.77
2019-04-25T15:23:59.935Z,99503.15
2019-04-25T15:26:21.185Z,99497.48
2019-04-25T15:28:50.206Z,99509.64
2019-04-25T15:31:19.110Z,99506.30
2019-04-25T15:33:48.256Z,99509.30
2019-04-25T15:36:28.656Z,99506.30
2019-04-25T15:39:16.458Z,99508.98
2019-04-25T15:41:50.482Z,99503.93
2019-04-25T15:44:35.311Z,99505.94
2019-04-25T15:47:05.870Z,99504.10
2019-04-25T15:49:34.904Z,99501.75
2019-04-25T15:52:04.473Z,99497.05
2019-04-25T15:54:33.896Z,99490.83
2019-04-25T15:57:02.916Z,99490.13
2019-04-25T15:59:32.783Z,99484.42
2019-04-25T16:02:07.890Z,99482.42
2019-04-25T16:04:32.693Z,99480.88
2019-04-25T16:07:01.586Z,99476.84
2019-04-25T16:09:31.894Z,99475.87
2019-04-25T16:12:00.864Z,99471.67
2019-04-25T16:14:29.654Z,99471.16
2019-04-25T16:16:58.541Z,99475.55
2019-04-25T16:19:28.210Z,99471.36
2019-04-25T16:21:57.652Z,99474.05
2019-04-25T16:24:26.696Z,99468.67
2019-04-25T16:26:55.764Z,99470.02
2019-04-25T16:29:24.681Z,99463.61
2019-04-25T16:31:53.725Z,99468.78
2019-04-25T16:34:22.854Z,99465.77
2019-04-25T16:36:51.963Z,99459.58
2019-04-25T16:39:24.125Z,99462.38
2019-04-25T16:41:53.009Z,99457.80
2019-04-25T16:44:22.572Z,99457.59
2019-04-25T16:46:51.650Z,99464.80
2019-04-25T16:49:20.484Z,99465.11
2019-04-25T16:51:49.590Z,99460.05
2019-04-25T16:54:18.706Z,99460.52
2019-04-25T16:56:47.598Z,99457.50
2019-04-25T16:59:16.836Z,99458.52
2019-04-25T17:01:46.346Z,99453.78
2019-04-25T17:04:19.748Z,99453.45
2019-04-25T17:06:47.854Z,99451.78
2019-04-25T17:09:16.844Z,99445.22
2019-04-25T17:11:46.104Z,99436.78
2019-04-25T17:14:39.720Z,99434.73
2019-04-25T17:17:33.716Z,99435.91
2019-04-25T17:20:18.264Z,99424.31
2019-04-25T17:22:47.309Z,99420.80
2019-04-25T17:25:18.394Z,99420.13
2019-04-25T17:27:47.444Z,99420.44
2019-04-25T17:30:16.553Z,99423.64
2019-04-25T17:33:04.569Z,99422.25
2019-04-25T17:35:52.739Z,99425.24
2019-04-25T17:38:33.550Z,99422.54
2019-04-25T17:41:02.496Z,99420.34
2019-04-25T17:43:31.994Z,99419.31
2019-04-25T17:46:02.041Z,99414.09
2019-04-25T17:48:31.868Z,99412.58
2019-04-25T17:51:00.862Z,99412.73
2019-04-25T17:53:29.791Z,99415.09
2019-04-25T17:55:58.875Z,99410.36
2019-04-25T17:58:27.812Z,99408.69
2019-04-25T18:00:56.961Z,99408.14
2019-04-25T18:03:26.359Z,99404.75
2019-04-25T18:05:55.276Z,99402.75
2019-04-25T18:08:24.230Z,99393.14
2019-04-25T18:10:53.100Z,99398.17
2019-04-25T18:13:22.069Z,99395.31
2019-04-25T18:16:09.938Z,99394.13
2019-04-25T18:18:53.989Z,99388.39
2019-04-25T18:21:23.103Z,99389.52
2019-04-25T18:24:10.939Z,99385.32
2019-04-25T18:27:10.827Z,99390.84
2019-04-25T18:29:40.096Z,99389.66
2019-04-25T18:32:08.983Z,99399.69
2019-04-25T18:34:44.414Z,99399.84
2019-04-25T18:37:37.196Z,99402.04
2019-04-25T18:40:12.802Z,99402.84
2019-04-25T18:42:51.378Z,99407.02
2019-04-25T18:45:24.836Z,99405.83
2019-04-25T18:47:53.860Z,99412.69
2019-04-25T18:50:25.450Z,99414.67
2019-04-25T18:53:22.333Z,99412.66
2019-04-25T18:56:03.129Z,99420.86
2019-04-25T18:58:57.025Z,99416.63
2019-04-25T19:01:54.265Z,99418.97
2019-04-25T19:04:30.274Z,99417.08
2019-04-25T19:06:59.279Z,99422.96
2019-04-25T19:09:28.649Z,99419.91
2019-04-25T19:11:57.557Z,99423.27
2019-04-25T19:14:27.278Z,99425.58
2019-04-25T19:16:56.547Z,99425.25
2019-04-25T19:19:25.454Z,99427.23
2019-04-25T19:21:54.348Z,99425.06
2019-04-25T19:24:23.549Z,99429.73
2019-04-25T19:26:52.620Z,99429.73
2019-04-25T19:29:21.651Z,99424.17
2019-04-25T19:31:52.065Z,99426.00
2019-04-25T19:34:21.414Z,99415.09
2019-04-25T19:36:51.208Z,99419.27
2019-04-25T19:39:21.714Z,99420.76
2019-04-25T19:42:09.651Z,99418.71
2019-04-25T19:44:38.710Z,99416.67
2019-04-25T19:47:07.710Z,99416.00
2019-04-25T19:49:36.703Z,99411.12
2019-04-25T19:52:05.638Z,99423.34
2019-04-25T19:54:34.735Z,99422.15
2019-04-25T19:57:03.816Z,99424.83
2019-04-25T19:59:33.018Z,99426.80
2019-04-25T20:02:06.593Z,99434.03
2019-04-25T20:05:03.860Z,99426.62
2019-04-25T20:07:38.096Z,99424.09
2019-04-25T20:10:25.147Z,99428.26
2019-04-25T20:12:54.983Z,99434.63
2019-04-25T20:15:23.906Z,99434.26
2019-04-25T20:17:54.104Z,99433.59
2019-04-25T20:20:23.123Z,99436.27
2019-04-25T20:22:52.395Z,99431.88
2019-04-25T20:25:21.382Z,99430.69
2019-04-25T20:27:50.807Z,99421.81
2019-04-25T20:30:19.913Z,99418.43
2019-04-25T20:32:49.250Z,99421.75
2019-04-25T20:35:18.379Z,99423.09
2019-04-25T20:37:47.542Z,99414.83
2019-04-25T20:40:16.429Z,99414.48
2019-04-25T20:42:45.556Z,99417.66
2019-04-25T20:45:15.926Z,99420.48
2019-04-25T20:47:46.582Z,99416.13
2019-04-25T20:50:15.736Z,99411.06
2019-04-25T20:52:44.744Z,99412.89
2019-04-25T20:55:13.969Z,99418.25
2019-04-25T20:57:42.887Z,99408.02
2019-04-25T21:00:12.123Z,99406.83
2019-04-25T21:02:41.114Z,99407.48
2019-04-25T21:05:10.198Z,99405.78
2019-04-25T21:07:39.042Z,99410.47
2019-04-25T21:10:08.193Z,99469.43
2019-04-25T21:12:37.153Z,99492.70
2019-04-25T21:15:31.219Z,99480.63
2019-04-25T21:18:13.683Z,99482.45
2019-04-25T21:20:42.658Z,99496.52
2019-04-25T21:23:11.686Z,99502.84
2019-04-25T21:25:40.697Z,99513.23
2019-04-25T21:28:09.732Z,99516.77
2019-04-25T21:30:38.601Z,99531.99
2019-04-25T21:33:07.628Z,99539.69
2019-04-25T21:35:36.775Z,99550.04
2019-04-25T21:38:05.723Z,99554.20
2019-04-25T21:40:46.957Z,99557.88
2019-04-25T21:46:00.891Z,99573.91
2019-04-25T21:48:30.293Z,99576.22
2019-04-25T21:51:01.922Z,99578.70
2019-04-25T21:53:30.847Z,99582.52
2019-04-25T21:56:00.148Z,99592.05
2019-04-25T21:58:29.287Z,99595.83
2019-04-25T22:01:09.525Z,99607.34
2019-04-25T22:03:38.520Z,99612.98
2019-04-25T22:06:07.830Z,99605.78
2019-04-25T22:08:36.837Z,99610.80
2019-04-25T22:11:05.685Z,99614.09
2019-04-25T22:13:34.862Z,99615.58
2019-04-25T22:16:04.155Z,99613.55
2019-04-25T22:18:33.441Z,99619.05
2019-04-25T22:21:04.224Z,99630.73
2019-04-25T22:23:33.474Z,99633.06
2019-04-25T22:26:02.973Z,99642.59
2019-04-25T22:28:32.260Z,99645.27
2019-04-25T22:31:03.511Z,99648.22
2019-04-25T22:33:45.613Z,99648.36
2019-04-25T22:36:20.260Z,99646.16
2019-04-25T22:39:08.689Z,99657.87
2019-04-25T22:41:38.568Z,99662.89
2019-04-25T22:44:09.069Z,99663.51
2019-04-25T22:46:38.441Z,99662.65
2019-04-25T22:49:07.718Z,99655.12
2019-04-25T22:51:36.790Z,99658.43
2019-04-25T22:54:06.178Z,99660.77
2019-04-25T22:56:35.122Z,99660.39
2019-04-25T22:59:04.925Z,99661.05
2019-04-25T23:02:07.751Z,99653.97
2019-04-25T23:04:50.536Z,99651.81
2019-04-25T23:07:19.441Z,99649.27
2019-04-25T23:09:50.432Z,99644.88
2019-04-25T23:12:19.719Z,99652.91
2019-04-25T23:14:48.729Z,99653.42
2019-04-25T23:17:17.692Z,99651.81
2019-04-25T23:19:46.773Z,99654.62
2019-04-25T23:22:15.842Z,99657.83
2019-04-25T23:24:51.058Z,99656.83
2019-04-25T23:27:34.833Z,99659.50
2019-04-25T23:30:05.697Z,99659.64
2019-04-25T23:32:35.568Z,99649.55
2019-04-25T23:35:14.784Z,99651.41
2019-04-25T23:37:35.158Z,99647.53
2019-04-25T23:40:03.961Z,99638.16
2019-04-25T23:42:32.936Z,99631.09
2019-04-25T23:45:02.419Z,99626.11
2019-04-25T23:47:31.412Z,99614.82
2019-04-25T23:50:00.426Z,99612.14
2019-04-25T23:52:29.486Z,99617.50
2019-04-25T23:54:58.478Z,99625.88
2019-04-25T23:57:27.471Z,99643.79
2019-04-25T23:59:56.462Z,99653.16
